TimeCST,TemperatureF,Dew PointF,Humidity,Sea Level PressureIn,VisibilityMPH,Wind Direction,Wind SpeedMPH,Gust SpeedMPH,PrecipitationIn,Events,Conditions,WindDirDegrees,DateUTC
12:14 AM,48.2,37.4,66,29.69,10.0,SSE,17.3,-,N/A,,Clear,160,2013-11-04 06:14:00
12:34 AM,48.2,37.4,66,29.70,10.0,South,15.0,-,N/A,,Clear,170,2013-11-04 06:34:00
12:53 AM,48.2,37.4,66,29.70,10.0,South,13.8,-,N/A,,Clear,170,2013-11-04 06:53:00
1:14 AM,46.4,37.4,71,29.70,10.0,SSE,11.5,-,N/A,,Clear,160,2013-11-04 07:14:00
1:34 AM,46.4,37.4,71,29.70,10.0,South,10.4,-,N/A,,Clear,170,2013-11-04 07:34:00
1:53 AM,46.4,37.4,71,29.70,10.0,South,10.4,-,N/A,,Clear,170,2013-11-04 07:53:00
2:14 AM,44.6,37.4,76,29.70,10.0,South,9.2,-,N/A,,Clear,170,2013-11-04 08:14:00
2:34 AM,44.6,37.4,76,29.70,10.0,SSE,8.1,-,N/A,,Clear,160,2013-11-04 08:34:00
2:54 AM,42.8,37.4,81,29.69,10.0,SSE,8.1,-,N/A,,Clear,160,2013-11-04 08:54:00
3:14 AM,42.8,37.4,81,29.70,10.0,SSE,8.1,-,N/A,,Clear,160,2013-11-04 09:14:00
3:33 AM,42.8,37.4,81,29.70,10.0,SSE,9.2,-,N/A,,Clear,160,2013-11-04 09:33:00
3:54 AM,42.8,37.4,81,29.70,10.0,South,6.9,-,N/A,,Clear,170,2013-11-04 09:54:00
4:14 AM,42.8,37.4,81,29.70,10.0,South,6.9,-,N/A,,Clear,180,2013-11-04 10:14:00
4:33 AM,41.0,35.6,81,29.71,10.0,SSW,5.8,-,N/A,,Clear,200,2013-11-04 10:33:00
4:54 AM,41.0,35.6,81,29.71,10.0,SSE,4.6,-,N/A,,Clear,150,2013-11-04 10:54:00
5:14 AM,37.4,33.8,87,29.71,10.0,SE,4.6,-,N/A,,Clear,140,2013-11-04 11:14:00
5:33 AM,37.4,33.8,87,29.72,10.0,South,6.9,-,N/A,,Clear,170,2013-11-04 11:33:00
5:54 AM,37.4,35.6,93,29.72,10.0,South,5.8,-,N/A,,Clear,180,2013-11-04 11:54:00
6:14 AM,39.2,35.6,87,29.73,10.0,SSW,6.9,-,N/A,,Clear,200,2013-11-04 12:14:00
6:33 AM,41.0,37.4,87,29.73,10.0,SW,8.1,-,N/A,,Clear,230,2013-11-04 12:33:00
6:54 AM,42.8,37.4,81,29.74,10.0,West,10.4,-,N/A,,Clear,260,2013-11-04 12:54:00
7:13 AM,42.8,37.4,81,29.74,10.0,West,10.4,-,N/A,,Clear,280,2013-11-04 13:13:00
7:33 AM,42.8,37.4,81,29.76,10.0,West,9.2,-,N/A,,Clear,280,2013-11-04 13:33:00
7:54 AM,42.8,37.4,81,29.77,10.0,WNW,9.2,-,N/A,,Mostly Cloudy,290,2013-11-04 13:54:00
8:14 AM,44.6,37.4,76,29.78,10.0,WNW,11.5,-,N/A,,Scattered Clouds,300,2013-11-04 14:14:00
8:34 AM,44.6,37.4,76,29.79,10.0,WNW,16.1,-,N/A,,Clear,300,2013-11-04 14:34:00
8:53 AM,46.4,37.4,71,29.80,10.0,NW,15.0,21.9,N/A,,Clear,310,2013-11-04 14:53:00
9:14 AM,46.4,35.6,66,29.83,10.0,WNW,18.4,23.0,N/A,,Clear,300,2013-11-04 15:14:00
9:34 AM,46.4,37.4,71,29.85,10.0,NW,11.5,20.7,N/A,Rain,Light Rain,310,2013-11-04 15:34:00
9:53 AM,44.6,39.2,81,29.86,10.0,NW,11.5,-,N/A,Rain,Light Rain,310,2013-11-04 15:53:00
10:14 AM,44.6,39.2,81,29.87,10.0,NW,11.5,17.3,N/A,Rain,Light Rain,320,2013-11-04 16:14:00
10:34 AM,44.6,39.2,81,29.87,10.0,NW,10.4,-,0.01,Rain,Light Rain,320,2013-11-04 16:34:00
10:53 AM,46.4,39.2,76,29.87,10.0,NW,10.4,-,0.01,Rain,Light Rain,320,2013-11-04 16:53:00
11:14 AM,46.4,39.2,76,29.89,10.0,WNW,13.8,18.4,N/A,,Mostly Cloudy,300,2013-11-04 17:14:00
11:34 AM,46.4,35.6,66,29.89,10.0,NW,12.7,-,N/A,,Scattered Clouds,310,2013-11-04 17:34:00
11:53 AM,46.4,33.8,62,29.89,10.0,WNW,10.4,-,N/A,,Scattered Clouds,300,2013-11-04 17:53:00
12:14 PM,48.2,35.6,62,29.90,10.0,WNW,15.0,19.6,N/A,,Scattered Clouds,300,2013-11-04 18:14:00
12:34 PM,48.2,33.8,58,29.90,10.0,WNW,19.6,24.2,N/A,,Clear,290,2013-11-04 18:34:00
12:53 PM,48.2,33.8,58,29.90,10.0,NW,16.1,-,N/A,,Clear,310,2013-11-04 18:53:00
1:14 PM,50.0,32.0,50,29.90,10.0,WNW,20.7,25.3,N/A,,Clear,300,2013-11-04 19:14:00
1:33 PM,50.0,32.0,50,29.90,10.0,WNW,19.6,23.0,N/A,,Clear,290,2013-11-04 19:33:00
1:54 PM,51.8,32.0,47,29.91,10.0,West,18.4,25.3,N/A,,Clear,280,2013-11-04 19:54:00
2:14 PM,51.8,32.0,47,29.91,10.0,West,19.6,25.3,N/A,,Clear,280,2013-11-04 20:14:00
2:33 PM,50.0,30.2,47,29.92,10.0,West,16.1,26.5,N/A,,Clear,280,2013-11-04 20:33:00
2:54 PM,51.8,30.2,44,29.92,10.0,West,19.6,26.5,N/A,,Clear,280,2013-11-04 20:54:00
3:14 PM,50.0,30.2,47,29.93,10.0,WNW,18.4,-,N/A,,Clear,290,2013-11-04 21:14:00
3:33 PM,50.0,28.4,43,29.95,10.0,WNW,17.3,21.9,N/A,,Clear,290,2013-11-04 21:33:00
3:54 PM,48.2,30.2,50,29.96,10.0,West,11.5,20.7,N/A,,Clear,270,2013-11-04 21:54:00
4:14 PM,48.2,30.2,50,29.96,10.0,West,13.8,20.7,N/A,,Clear,280,2013-11-04 22:14:00
4:33 PM,48.2,30.2,50,29.97,10.0,West,12.7,-,N/A,,Clear,280,2013-11-04 22:33:00
4:54 PM,46.4,30.2,53,29.98,10.0,West,6.9,-,N/A,,Clear,280,2013-11-04 22:54:00
5:14 PM,44.6,30.2,57,29.98,10.0,WNW,8.1,-,N/A,,Clear,290,2013-11-04 23:14:00
5:33 PM,42.8,30.2,61,29.99,10.0,West,9.2,-,N/A,,Clear,280,2013-11-04 23:33:00
5:54 PM,39.2,28.4,65,30.00,10.0,West,5.8,-,N/A,,Clear,270,2013-11-04 23:54:00
6:13 PM,39.2,28.4,65,30.01,10.0,Calm,Calm,-,N/A,,Clear,0,2013-11-05 00:13:00
6:34 PM,39.2,28.4,65,30.02,10.0,SW,3.5,-,N/A,,Clear,230,2013-11-05 00:34:00
6:54 PM,39.2,28.4,65,30.03,10.0,WSW,4.6,-,N/A,,Clear,250,2013-11-05 00:54:00
7:13 PM,39.2,28.4,65,30.04,10.0,WSW,3.5,-,N/A,,Clear,240,2013-11-05 01:13:00
7:34 PM,35.6,28.4,75,30.05,10.0,WSW,4.6,-,N/A,,Clear,250,2013-11-05 01:34:00
7:53 PM,35.6,28.4,75,30.06,10.0,West,4.6,-,N/A,,Clear,260,2013-11-05 01:53:00
8:13 PM,35.6,28.4,75,30.08,10.0,West,3.5,-,N/A,,Clear,270,2013-11-05 02:13:00
8:34 PM,33.8,28.4,81,30.08,10.0,WSW,3.5,-,N/A,,Clear,240,2013-11-05 02:34:00
8:53 PM,33.8,28.4,81,30.09,10.0,WSW,4.6,-,N/A,,Clear,240,2013-11-05 02:53:00
9:13 PM,33.8,28.4,81,30.10,10.0,SW,6.9,-,N/A,,Clear,230,2013-11-05 03:13:00
9:34 PM,33.8,28.4,81,30.10,10.0,SW,6.9,-,N/A,,Clear,230,2013-11-05 03:34:00
9:53 PM,35.6,28.4,75,30.11,10.0,WSW,6.9,-,N/A,,Clear,240,2013-11-05 03:53:00
10:13 PM,35.6,28.4,75,30.11,10.0,WSW,8.1,-,N/A,,Clear,240,2013-11-05 04:13:00
10:34 PM,35.6,30.2,81,30.12,10.0,SW,11.5,-,N/A,,Clear,230,2013-11-05 04:34:00
10:53 PM,37.4,30.2,75,30.12,10.0,WSW,9.2,-,N/A,,Clear,240,2013-11-05 04:53:00
11:14 PM,37.4,28.4,70,30.13,10.0,West,5.8,-,N/A,,Clear,260,2013-11-05 05:14:00
11:34 PM,35.6,28.4,75,30.14,10.0,West,6.9,-,N/A,,Clear,270,2013-11-05 05:34:00
11:53 PM,33.8,28.4,81,30.14,10.0,West,4.6,-,N/A,,Clear,280,2013-11-05 05:53:00